Ocean Dr Beach, South Carolina
Current Conditions -  °F | °C
As of 10:53 PM on Wednesday 22 Oct 2014 (Local Time) from KCRE Reporting Station
Clear Clear  
Wind Chill: 54°   Ceiling: Unl
Heat Index: 54°   Visibility: 10mi
Dew Point: 46°   Wind: 3mph
Humidity: 75%   Direction: 350°N
Pressure: 30.04"   Gusts: NA
Location:  33.8371°N, 78.6471°W
Report Text: KCRE 230253Z 35003KT 10SM CLR 12/08 A3004 RMK AO1 SLP173 T01220078 51016
Loading
Personal Weather Stations






























Interactive Weather Map
Tropical Storm Tracking
New forecast layout! Learn more

10-Day Weather Forecast

Advertisements
Track Severe Weather on mobile